Time;durP1;ratioP1;P1;durP2;ratioP2;P2;SDS_P1;SDS_P2;PMS_P1;PMS_P2;Temp;Humidity;BMP_temperature;BMP_pressure;BME280_temperature;BME280_humidity;BME280_pressure;Samples;Min_cycle;Max_cycle;Signal;HPM_P1;HPM_P2
2022/02/27 00:01:20;;;;;;;16.55;4.88;;;0.30;99.90;;;;;;4953013;29;20096;-76
2022/02/27 00:03:46;;;;;;;12.82;4.85;;;0.00;99.90;;;;;;4952728;28;20035;-75
2022/02/27 00:06:12;;;;;;;12.55;4.22;;;0.00;99.90;;;;;;4935211;29;20040;-75
2022/02/27 00:08:37;;;;;;;10.23;3.92;;;-0.10;99.90;;;;;;4952160;29;20126;-75
2022/02/27 00:11:03;;;;;;;11.90;4.57;;;-0.30;99.90;;;;;;4952681;28;20027;-75
2022/02/27 00:13:29;;;;;;;12.27;3.92;;;-0.40;99.90;;;;;;4952661;29;20031;-75
2022/02/27 00:15:54;;;;;;;10.68;3.58;;;-0.50;99.90;;;;;;4935626;29;20034;-75
2022/02/27 00:18:20;;;;;;;12.80;4.60;;;-0.40;99.90;;;;;;4952797;28;20034;-75
2022/02/27 00:20:47;;;;;;;14.43;4.57;;;-0.40;99.90;;;;;;4952364;29;20122;-75
2022/02/27 00:23:13;;;;;;;13.00;4.68;;;-0.40;99.90;;;;;;4952500;29;20030;-75
2022/02/27 00:25:39;;;;;;;10.05;4.72;;;-0.40;99.90;;;;;;4952116;29;20125;-76
2022/02/27 00:28:05;;;;;;;17.55;4.43;;;-0.40;99.90;;;;;;4935647;28;20131;-76
2022/02/27 00:30:30;;;;;;;11.98;4.03;;;-0.50;99.90;;;;;;4952007;28;20376;-75
2022/02/27 00:32:56;;;;;;;11.57;3.38;;;-0.40;99.90;;;;;;4951361;29;20042;-75
2022/02/27 00:35:22;;;;;;;9.23;3.50;;;-0.40;99.90;;;;;;4935564;28;20031;-75
2022/02/27 00:37:47;;;;;;;11.05;3.88;;;-0.50;99.90;;;;;;4935530;29;20082;-75
2022/02/27 00:40:13;;;;;;;11.23;4.43;;;-0.50;99.90;;;;;;4952037;28;20042;-75
2022/02/27 00:42:39;;;;;;;13.25;3.92;;;-0.60;99.90;;;;;;4952124;28;20114;-75
2022/02/27 00:45:05;;;;;;;16.08;4.43;;;-0.50;99.90;;;;;;4952535;28;20034;-75
2022/02/27 00:47:31;;;;;;;11.00;3.90;;;-0.30;99.90;;;;;;4952368;29;20037;-75
2022/02/27 00:49:57;;;;;;;11.70;3.92;;;-0.10;99.90;;;;;;4951906;28;20043;-75
2022/02/27 00:52:22;;;;;;;12.05;4.97;;;-0.10;99.90;;;;;;4952057;29;20601;-75
2022/02/27 00:54:52;;;;;;;15.77;5.00;;;-0.10;99.90;;;;;;4952181;29;20039;-76
2022/02/27 00:57:23;;;;;;;17.85;5.47;;;-0.10;99.90;;;;;;4951114;29;20031;-76
2022/02/27 00:59:49;;;;;;;14.20;5.03;;;-0.20;99.90;;;;;;4951898;29;20024;-76
2022/02/27 01:02:15;;;;;;;13.18;4.55;;;-0.20;99.90;;;;;;4934570;29;20039;-75
2022/02/27 01:04:41;;;;;;;14.73;4.22;;;-0.30;99.90;;;;;;4952085;29;20046;-75
2022/02/27 01:07:07;;;;;;;12.63;3.92;;;-0.50;99.90;;;;;;4952113;29;20372;-76
2022/02/27 01:09:33;;;;;;;11.68;4.88;;;-0.50;99.90;;;;;;4934454;29;20031;-76
2022/02/27 01:11:58;;;;;;;17.67;5.20;;;-0.70;99.90;;;;;;4951794;29;20093;-76
2022/02/27 01:14:24;;;;;;;10.15;4.32;;;-0.60;99.90;;;;;;4934805;28;20403;-75
2022/02/27 01:16:50;;;;;;;10.68;4.60;;;-0.60;99.90;;;;;;4952091;28;20019;-75
2022/02/27 01:19:15;;;;;;;15.10;4.30;;;-0.60;99.90;;;;;;4951573;29;20588;-75
2022/02/27 01:21:41;;;;;;;18.13;5.63;;;-0.60;99.90;;;;;;4934700;28;20689;-75
2022/02/27 01:24:07;;;;;;;12.43;4.22;;;-0.30;99.90;;;;;;4951723;28;20028;-76
2022/02/27 01:26:33;;;;;;;9.77;4.00;;;-0.50;99.90;;;;;;4951674;28;20031;-76
2022/02/27 01:28:59;;;;;;;16.58;4.82;;;-0.60;99.90;;;;;;4951225;29;20076;-76
2022/02/27 01:31:25;;;;;;;8.60;4.13;;;-0.70;99.90;;;;;;4951531;29;20027;-76
2022/02/27 01:33:50;;;;;;;8.18;4.28;;;-0.60;99.90;;;;;;4951611;29;20035;-76
2022/02/27 01:36:17;;;;;;;9.18;4.00;;;;;;;;;;4934491;28;20084;-76
2022/02/27 01:38:45;;;;;;;14.07;3.85;;;;;;;;;;4950812;29;20507;-76
2022/02/27 01:41:11;;;;;;;9.60;3.97;;;;;;;;;;4950954;29;20039;-76
2022/02/27 01:43:37;;;;;;;9.60;3.35;;;;;;;;;;4951586;29;20043;-76
2022/02/27 01:46:03;;;;;;;7.25;3.42;;;-0.50;99.90;;;;;;4934877;29;20423;-76
2022/02/27 01:48:28;;;;;;;15.18;4.75;;;-0.60;99.90;;;;;;4934157;28;20032;-76
2022/02/27 01:50:54;;;;;;;10.18;3.75;;;-0.70;99.90;;;;;;4951162;28;20035;-76
2022/02/27 01:53:20;;;;;;;12.68;4.38;;;-0.80;99.90;;;;;;4951377;29;20041;-76
2022/02/27 01:55:47;;;;;;;12.23;3.92;;;-0.90;99.90;;;;;;4951197;29;20023;-76
2022/02/27 01:58:13;;;;;;;13.35;4.30;;;-0.70;99.90;;;;;;4951425;29;20023;-76
2022/02/27 02:00:39;;;;;;;8.80;3.35;;;-0.70;99.90;;;;;;4933793;29;20040;-76
2022/02/27 02:03:04;;;;;;;10.63;4.22;;;-0.70;99.90;;;;;;4951231;28;20062;-76
2022/02/27 02:05:30;;;;;;;10.48;3.83;;;-0.30;99.90;;;;;;4934182;29;20519;-76
2022/02/27 02:07:56;;;;;;;13.60;4.10;;;-0.90;99.90;;;;;;4951399;28;20395;-76
2022/02/27 02:10:21;;;;;;;10.43;4.32;;;-1.00;99.90;;;;;;4945319;28;20067;-76
2022/02/27 02:12:47;;;;;;;11.75;4.93;;;-1.20;99.90;;;;;;4947827;28;20035;-76
2022/02/27 02:15:12;;;;;;;9.73;4.35;;;-1.20;99.90;;;;;;4951300;29;20031;-76
2022/02/27 02:17:38;;;;;;;14.70;4.28;;;-1.20;99.90;;;;;;4951146;29;20050;-76
2022/02/27 02:20:06;;;;;;;18.95;4.28;;;-1.30;99.90;;;;;;4950666;29;20133;-76
2022/02/27 02:22:31;;;;;;;9.73;4.05;;;-1.10;99.90;;;;;;4950948;29;20031;-76
2022/02/27 02:24:57;;;;;;;6.90;3.70;;;-1.10;99.90;;;;;;4933989;28;20035;-76
2022/02/27 02:27:23;;;;;;;14.27;4.50;;;-1.10;99.90;;;;;;4950992;28;20031;-76
2022/02/27 02:29:48;;;;;;;10.30;3.70;;;-1.20;99.90;;;;;;4950348;29;20035;-76
2022/02/27 02:32:14;;;;;;;11.48;4.38;;;-1.40;99.90;;;;;;4951021;28;20035;-76
2022/02/27 02:34:40;;;;;;;14.57;4.78;;;-1.50;99.90;;;;;;4951110;28;20027;-75
2022/02/27 02:37:08;;;;;;;12.00;4.70;;;-1.50;99.90;;;;;;4950869;29;20137;-76
2022/02/27 02:39:34;;;;;;;9.27;4.18;;;-1.60;99.90;;;;;;4950422;29;20034;-76
2022/02/27 02:42:00;;;;;;;17.38;4.70;;;-1.70;99.90;;;;;;4950377;28;20447;-76
2022/02/27 02:44:26;;;;;;;12.77;4.82;;;-1.70;99.90;;;;;;4950937;28;20035;-76
2022/02/27 02:46:52;;;;;;;11.38;4.97;;;-1.80;99.90;;;;;;4950923;28;20168;-76
2022/02/27 02:49:17;;;;;;;10.32;5.25;;;-1.90;99.90;;;;;;4950166;28;20494;-76
2022/02/27 02:51:43;;;;;;;17.85;5.07;;;-2.00;99.90;;;;;;4950601;29;20042;-76
2022/02/27 02:54:09;;;;;;;16.08;5.38;;;-2.00;99.90;;;;;;4933464;29;20114;-76
2022/02/27 02:56:36;;;;;;;12.55;5.22;;;-1.60;99.90;;;;;;4950533;28;20027;-76
2022/02/27 02:59:03;;;;;;;11.45;4.90;;;-2.20;99.90;;;;;;4950273;29;20035;-76
2022/02/27 03:01:29;;;;;;;11.38;5.75;;;-2.10;99.90;;;;;;4950429;29;20031;-76
2022/02/27 03:03:56;;;;;;;17.27;5.25;;;-2.30;99.90;;;;;;4950386;29;20485;-76
2022/02/27 03:06:21;;;;;;;16.23;5.03;;;-2.30;99.90;;;;;;4933434;29;20089;-76
2022/02/27 03:08:48;;;;;;;12.68;4.80;;;-2.30;99.90;;;;;;4950076;28;20470;-76
2022/02/27 03:11:16;;;;;;;13.00;4.82;;;-2.40;99.90;;;;;;4950008;29;20456;-76
2022/02/27 03:13:41;;;;;;;13.00;5.05;;;-2.40;99.90;;;;;;4950466;29;20051;-77
2022/02/27 03:16:07;;;;;;;11.07;4.78;;;-2.40;99.90;;;;;;4950488;28;20066;-77
2022/02/27 03:18:33;;;;;;;9.35;5.05;;;-2.40;99.90;;;;;;4949799;28;20027;-77
2022/02/27 03:20:59;;;;;;;12.60;5.72;;;-2.50;99.90;;;;;;4949720;29;20043;-77
2022/02/27 03:23:27;;;;;;;11.95;4.60;;;-2.30;99.90;;;;;;4933159;28;20031;-77
2022/02/27 03:25:53;;;;;;;13.35;5.70;;;-0.60;99.90;;;;;;4952205;29;20035;-77
2022/02/27 03:28:19;;;;;;;7.82;4.35;;;-1.00;99.90;;;;;;4936531;29;20076;-77
2022/02/27 03:30:45;;;;;;;11.75;4.32;;;-2.40;99.90;;;;;;4952588;29;20446;-77
2022/02/27 03:33:13;;;;;;;15.00;4.95;;;-2.40;99.90;;;;;;4953646;28;20023;-77
2022/02/27 03:35:40;;;;;;;11.68;4.53;;;-2.40;99.90;;;;;;4936709;29;20042;-77
2022/02/27 03:38:05;;;;;;;11.82;4.78;;;-2.30;99.90;;;;;;4953686;29;20027;-77
2022/02/27 03:40:31;;;;;;;15.30;5.15;;;-2.40;99.90;;;;;;4952622;28;20043;-77
2022/02/27 03:42:57;;;;;;;12.18;4.75;;;-2.60;99.90;;;;;;4953809;28;20040;-77
2022/02/27 03:45:22;;;;;;;15.50;5.53;;;-2.30;99.90;;;;;;4954881;28;20042;-77
2022/02/27 03:47:48;;;;;;;14.65;5.18;;;-2.50;99.90;;;;;;4954556;29;20039;-77
2022/02/27 03:50:15;;;;;;;9.25;5.07;;;-2.60;99.90;;;;;;4953668;28;20495;-77
2022/02/27 03:52:41;;;;;;;13.82;4.45;;;-2.60;99.90;;;;;;4953838;29;20105;-77
2022/02/27 03:55:10;;;;;;;11.55;5.28;;;-2.70;99.90;;;;;;4952960;28;20031;-77
2022/02/27 03:57:36;;;;;;;10.60;5.05;;;-2.70;99.90;;;;;;4952625;28;20074;-78
2022/02/27 04:00:04;;;;;;;13.20;5.22;;;-2.70;99.90;;;;;;4952383;29;20027;-77
2022/02/27 04:02:30;;;;;;;8.52;4.75;;;-2.80;99.90;;;;;;4953207;29;20094;-78
2022/02/27 04:04:55;;;;;;;11.68;3.95;;;-3.00;99.90;;;;;;4952670;28;20042;-77
2022/02/27 04:07:22;;;;;;;12.57;5.63;;;-2.90;99.90;;;;;;4953528;28;20081;-77
2022/02/27 04:09:47;;;;;;;13.63;4.93;;;-2.70;99.90;;;;;;4952509;29;20036;-77
2022/02/27 04:12:13;;;;;;;12.45;5.28;;;-2.60;99.90;;;;;;4953389;28;20042;-78
2022/02/27 04:14:38;;;;;;;12.60;4.88;;;-2.30;99.90;;;;;;4952261;28;20110;-78
2022/02/27 04:17:04;;;;;;;15.18;5.32;;;-2.30;99.90;;;;;;4952500;28;20085;-77
2022/02/27 04:19:30;;;;;;;12.07;5.00;;;-2.20;99.90;;;;;;4952156;28;20027;-77
2022/02/27 04:21:55;;;;;;;16.55;5.20;;;-2.30;99.90;;;;;;4952970;29;20042;-78
2022/02/27 04:24:22;;;;;;;11.13;4.10;;;-2.20;99.90;;;;;;4952919;28;20035;-77
2022/02/27 04:26:48;;;;;;;11.52;5.15;;;-2.30;99.90;;;;;;4952796;29;20031;-77
2022/02/27 04:29:14;;;;;;;19.98;5.90;;;-2.30;99.90;;;;;;4951783;29;20076;-77
2022/02/27 04:31:39;;;;;;;12.95;4.70;;;-2.40;99.90;;;;;;4952725;28;20035;-77
2022/02/27 04:34:05;;;;;;;13.25;4.95;;;-2.40;99.90;;;;;;4952641;28;20027;-77
2022/02/27 04:36:31;;;;;;;11.20;4.80;;;-2.40;99.90;;;;;;4951476;28;20034;-77
2022/02/27 04:38:56;;;;;;;11.48;5.40;;;-2.40;99.90;;;;;;4951970;28;20461;-77
2022/02/27 04:41:22;;;;;;;13.57;5.05;;;-2.60;99.90;;;;;;4952662;28;20119;-77
2022/02/27 04:43:49;;;;;;;11.15;4.72;;;-2.60;99.90;;;;;;4945609;28;20638;-77
2022/02/27 04:46:15;;;;;;;9.45;4.57;;;-2.60;99.90;;;;;;4933486;29;20111;-77
2022/02/27 04:48:41;;;;;;;14.43;5.10;;;-2.70;99.90;;;;;;4941407;29;20046;-77
2022/02/27 04:51:07;;;;;;;13.98;4.95;;;-2.80;99.90;;;;;;4952287;29;20039;-77
2022/02/27 04:53:34;;;;;;;13.05;4.70;;;-2.70;99.90;;;;;;4951690;29;20053;-77
2022/02/27 04:56:00;;;;;;;14.82;5.15;;;-2.60;99.90;;;;;;4952438;29;20043;-77
2022/02/27 04:58:26;;;;;;;13.40;5.00;;;-2.60;99.90;;;;;;4951899;28;20503;-77
2022/02/27 05:00:51;;;;;;;11.82;5.75;;;-2.60;99.90;;;;;;4950706;29;20032;-77
2022/02/27 05:03:17;;;;;;;14.80;5.13;;;-2.00;99.90;;;;;;4952233;28;20045;-77
2022/02/27 05:05:43;;;;;;;14.32;4.80;;;-2.90;99.90;;;;;;4952805;28;20508;-77
2022/02/27 05:08:09;;;;;;;13.73;5.35;;;-2.80;99.90;;;;;;4952325;29;20081;-77
2022/02/27 05:10:36;;;;;;;9.77;4.65;;;-3.00;99.90;;;;;;4941731;29;20035;-77
2022/02/27 05:13:02;;;;;;;16.23;5.25;;;-3.00;99.90;;;;;;4958315;29;20019;-77
2022/02/27 05:15:28;;;;;;;10.60;4.88;;;-3.10;99.90;;;;;;4956271;29;20058;-77
2022/02/27 05:17:54;;;;;;;12.65;4.93;;;-3.20;99.90;;;;;;4934514;29;20059;-77
2022/02/27 05:20:20;;;;;;;17.38;4.82;;;-3.20;99.90;;;;;;4951989;29;20554;-78
2022/02/27 05:22:47;;;;;;;16.33;5.43;;;-3.30;99.90;;;;;;4951791;29;20067;-77
2022/02/27 05:25:18;;;;;;;9.13;4.53;;;-3.30;99.90;;;;;;4953236;28;20023;-77
2022/02/27 05:27:45;;;;;;;14.10;4.60;;;-3.30;99.90;;;;;;4953785;28;20482;-77
2022/02/27 05:30:11;;;;;;;15.05;4.80;;;-3.40;99.90;;;;;;4952927;29;20039;-77
2022/02/27 05:32:37;;;;;;;11.02;4.88;;;-3.30;99.90;;;;;;4952980;29;20575;-77
2022/02/27 05:35:03;;;;;;;14.95;5.22;;;-3.30;99.90;;;;;;4952099;29;20028;-77
2022/02/27 05:37:28;;;;;;;16.45;5.43;;;-3.30;99.90;;;;;;4951998;29;20388;-77
2022/02/27 05:39:54;;;;;;;15.77;4.95;;;-3.20;99.90;;;;;;4952174;28;20039;-77
2022/02/27 05:42:19;;;;;;;17.38;6.18;;;-3.20;99.90;;;;;;4953160;28;20442;-77
2022/02/27 05:44:46;;;;;;;14.27;6.18;;;-3.10;99.90;;;;;;4953166;29;20023;-77
2022/02/27 05:47:12;;;;;;;12.25;4.90;;;-3.00;99.90;;;;;;4937410;29;20023;-77
2022/02/27 05:49:37;;;;;;;17.23;6.35;;;-3.10;99.90;;;;;;4953956;29;20038;-77
2022/02/27 05:52:03;;;;;;;11.95;5.80;;;-3.00;99.90;;;;;;4954429;28;20524;-77
2022/02/27 05:54:29;;;;;;;18.42;6.72;;;-2.90;99.90;;;;;;4953544;28;20035;-78
2022/02/27 05:56:55;;;;;;;14.98;6.60;;;-2.60;99.90;;;;;;4952808;29;20054;-77
2022/02/27 05:59:21;;;;;;;20.73;6.60;;;-2.70;99.90;;;;;;4951091;29;20124;-77
2022/02/27 06:01:48;;;;;;;22.13;6.07;;;-2.60;99.90;;;;;;4952868;28;20058;-77
2022/02/27 06:04:15;;;;;;;17.10;6.47;;;-2.50;99.90;;;;;;4951337;28;20492;-77
2022/02/27 06:06:40;;;;;;;16.92;5.88;;;-2.20;99.90;;;;;;4951116;29;20403;-77
2022/02/27 06:09:06;;;;;;;15.90;7.03;;;-2.00;99.90;;;;;;4951361;29;20110;-77
2022/02/27 06:11:32;;;;;;;13.90;6.80;;;-1.70;99.90;;;;;;4951212;29;20037;-77
2022/02/27 06:13:57;;;;;;;17.90;6.22;;;-1.60;99.90;;;;;;4951425;29;20430;-76
2022/02/27 06:16:23;;;;;;;18.38;6.45;;;-1.50;99.90;;;;;;4951822;29;20031;-77
2022/02/27 06:18:49;;;;;;;17.05;6.18;;;-1.20;99.90;;;;;;4950911;28;20407;-77
2022/02/27 06:21:14;;;;;;;20.33;5.97;;;-1.10;99.90;;;;;;4951488;29;20093;-77
2022/02/27 06:23:40;;;;;;;20.98;6.53;;;-1.00;99.90;;;;;;4950465;29;20072;-77
2022/02/27 06:26:05;;;;;;;11.80;6.57;;;-0.70;99.90;;;;;;4951377;29;20031;-77
2022/02/27 06:28:31;;;;;;;11.35;5.30;;;-1.00;99.90;;;;;;4951676;29;20043;-77
2022/02/27 06:30:57;;;;;;;18.48;5.70;;;-1.00;99.90;;;;;;4950932;29;20039;-77
2022/02/27 06:33:22;;;;;;;14.30;5.88;;;-1.00;99.90;;;;;;4952866;29;20043;-77
2022/02/27 06:35:48;;;;;;;15.60;5.80;;;-1.00;99.90;;;;;;4952555;29;20027;-77
2022/02/27 06:38:13;;;;;;;15.73;5.63;;;-1.10;99.90;;;;;;4952424;29;20034;-77
2022/02/27 06:40:39;;;;;;;11.68;5.22;;;-1.30;99.90;;;;;;4951005;29;20077;-77
2022/02/27 06:43:07;;;;;;;20.95;6.93;;;-1.20;99.90;;;;;;4938124;28;20035;-77
2022/02/27 06:45:33;;;;;;;30.65;11.70;;;0.60;99.90;;;;;;4934292;29;20042;-77
2022/02/27 06:47:59;;;;;;;34.40;12.70;;;-1.00;99.90;;;;;;4951851;29;20491;-77
2022/02/27 06:50:25;;;;;;;19.98;9.93;;;-1.00;99.90;;;;;;4951039;28;20036;-77
2022/02/27 06:52:51;;;;;;;18.13;8.40;;;-1.00;99.90;;;;;;4951906;29;20023;-77
2022/02/27 06:55:17;;;;;;;16.00;7.65;;;-1.10;99.90;;;;;;4951215;28;20518;-77
2022/02/27 06:57:43;;;;;;;19.38;7.97;;;-1.20;99.90;;;;;;4951444;28;20089;-77
2022/02/27 07:00:11;;;;;;;14.43;6.60;;;-1.20;99.90;;;;;;4952831;28;20030;-77
2022/02/27 07:02:38;;;;;;;15.57;6.65;;;-1.20;99.90;;;;;;4937713;28;20438;-77
2022/02/27 07:05:03;;;;;;;11.85;5.80;;;-1.20;99.90;;;;;;4954184;29;20058;-75
2022/02/27 07:07:29;;;;;;;16.85;8.38;;;-1.40;99.90;;;;;;4953599;29;20512;-75
2022/02/27 07:10:00;;;;;;;18.83;7.82;;;-1.30;99.90;;;;;;4952967;29;20050;-75
2022/02/27 07:12:29;;;;;;;13.18;6.88;;;-1.20;99.90;;;;;;4953873;29;20158;-76
2022/02/27 07:14:54;;;;;;;13.10;6.80;;;-1.10;99.90;;;;;;4953818;29;20380;-75
2022/02/27 07:17:20;;;;;;;17.23;7.40;;;-1.20;99.90;;;;;;4936446;28;20157;-75
2022/02/27 07:19:45;;;;;;;16.83;8.13;;;-1.10;99.90;;;;;;4953124;28;20395;-76
2022/02/27 07:22:13;;;;;;;21.70;10.18;;;-1.20;99.90;;;;;;4954234;29;20063;-77
2022/02/27 07:24:39;;;;;;;20.55;8.98;;;-1.20;99.90;;;;;;4955383;29;20177;-78
2022/02/27 07:27:05;;;;;;;14.82;7.72;;;-0.90;99.90;;;;;;4956404;29;20035;-78
2022/02/27 07:29:32;;;;;;;14.07;6.82;;;-0.80;99.90;;;;;;4954070;29;20483;-76
2022/02/27 07:31:58;;;;;;;17.10;6.50;;;-0.30;99.90;;;;;;4953201;29;20126;-76
2022/02/27 07:34:23;;;;;;;15.80;7.63;;;0.30;99.90;;;;;;4953682;29;20517;-77
2022/02/27 07:36:54;;;;;;;18.63;8.32;;;-0.40;99.90;;;;;;4953938;28;20788;-77
2022/02/27 07:39:20;;;;;;;19.73;8.30;;;-0.30;99.90;;;;;;4952672;29;20034;-76
2022/02/27 07:41:46;;;;;;;19.70;7.40;;;0.00;99.90;;;;;;4953201;29;20049;-77
2022/02/27 07:44:12;;;;;;;19.17;6.38;;;0.20;99.90;;;;;;4937871;28;20036;-77
2022/02/27 07:46:38;;;;;;;17.02;6.60;;;0.30;99.90;;;;;;4954036;29;20107;-77
2022/02/27 07:49:04;;;;;;;18.83;6.70;;;1.00;99.90;;;;;;4953400;28;20065;-77
2022/02/27 07:51:30;;;;;;;18.08;7.00;;;0.50;99.90;;;;;;4936322;29;20082;-77
2022/02/27 07:53:56;;;;;;;16.98;6.55;;;0.80;99.90;;;;;;4954105;29;20030;-77
2022/02/27 07:56:21;;;;;;;18.40;6.55;;;1.00;99.90;;;;;;4954395;29;20114;-76
2022/02/27 07:58:47;;;;;;;18.77;7.25;;;2.40;99.90;;;;;;4952505;29;20439;-76
2022/02/27 08:01:13;;;;;;;19.70;6.80;;;1.10;99.90;;;;;;4953682;28;20039;-75
2022/02/27 08:03:39;;;;;;;14.02;6.65;;;1.20;99.90;;;;;;4951753;28;20479;-76
2022/02/27 08:06:05;;;;;;;12.30;6.20;;;1.40;99.90;;;;;;4936142;29;20488;-76
2022/02/27 08:08:31;;;;;;;12.65;6.13;;;1.60;99.90;;;;;;4952567;29;20040;-76
2022/02/27 08:10:57;;;;;;;11.80;5.00;;;1.80;99.90;;;;;;4953081;28;20438;-76
2022/02/27 08:13:22;;;;;;;13.30;5.00;;;2.00;99.90;;;;;;4936529;29;20532;-76
2022/02/27 08:15:48;;;;;;;11.15;5.00;;;2.50;99.90;;;;;;4935851;29;20476;-76
2022/02/27 08:18:13;;;;;;;12.95;5.20;;;2.40;99.90;;;;;;4953357;28;20373;-75
2022/02/27 08:20:39;;;;;;;11.98;4.90;;;2.60;99.90;;;;;;4951775;28;20032;-76
2022/02/27 08:23:05;;;;;;;10.32;4.10;;;2.90;99.90;;;;;;4921889;29;20130;-75
2022/02/27 08:25:30;;;;;;;7.97;4.28;;;3.20;99.90;;;;;;4954597;28;20729;-75
2022/02/27 08:27:56;;;;;;;7.45;4.20;;;3.30;99.90;;;;;;4952169;28;20109;-75
2022/02/27 08:30:22;;;;;;;10.43;3.72;;;3.60;99.90;;;;;;4951681;28;20093;-74
2022/02/27 08:32:50;;;;;;;10.73;4.28;;;3.60;99.90;;;;;;4952707;28;20110;-74
2022/02/27 08:35:16;;;;;;;8.80;3.60;;;3.80;99.90;;;;;;4952906;29;20411;-74
2022/02/27 08:37:42;;;;;;;10.50;4.60;;;4.60;99.90;;;;;;4952919;29;20023;-75
2022/02/27 08:40:08;;;;;;;7.53;3.70;;;4.30;99.90;;;;;;4952331;29;20024;-75
2022/02/27 08:42:34;;;;;;;7.72;3.88;;;4.30;99.90;;;;;;4953076;29;20063;-74
2022/02/27 08:44:59;;;;;;;6.80;3.97;;;5.00;99.90;;;;;;4953266;29;20031;-75
2022/02/27 08:47:25;;;;;;;7.60;3.42;;;5.40;99.90;;;;;;4936071;28;20161;-77
2022/02/27 08:49:51;;;;;;;6.90;3.50;;;6.40;99.90;;;;;;4951683;29;20050;-75
2022/02/27 08:52:17;;;;;;;10.10;4.82;;;7.50;99.90;;;;;;4951941;29;20580;-75
2022/02/27 08:54:42;;;;;;;9.25;3.60;;;7.90;99.90;;;;;;4952211;28;20116;-75
2022/02/27 08:57:08;;;;;;;6.45;3.15;;;8.70;99.90;;;;;;4952131;29;20019;-76
2022/02/27 08:59:33;;;;;;;7.35;3.08;;;9.10;99.90;;;;;;4951205;28;20026;-76
2022/02/27 09:01:59;;;;;;;7.28;2.97;;;9.40;99.70;;;;;;4934930;28;20085;-76
2022/02/27 09:04:25;;;;;;;8.13;3.40;;;11.10;96.70;;;;;;4948895;29;20050;-76
2022/02/27 09:06:51;;;;;;;7.47;2.95;;;11.90;96.20;;;;;;4948964;29;20034;-75
2022/02/27 09:09:17;;;;;;;7.35;3.00;;;10.40;93.80;;;;;;4948492;29;20100;-75
2022/02/27 09:11:42;;;;;;;7.50;3.45;;;10.50;92.10;;;;;;4949103;28;20071;-76
2022/02/27 09:14:08;;;;;;;5.57;3.08;;;10.50;91.60;;;;;;4951324;29;20026;-76
2022/02/27 09:16:34;;;;;;;5.57;3.30;;;11.00;91.20;;;;;;4951692;28;20476;-75
2022/02/27 09:18:59;;;;;;;9.38;5.05;;;11.20;90.60;;;;;;4951278;28;20038;-75
2022/02/27 09:21:28;;;;;;;5.15;2.67;;;10.90;90.60;;;;;;4952134;28;20512;-76
2022/02/27 09:23:54;;;;;;;5.57;2.97;;;;;;;;;;4948138;28;20071;-76
2022/02/27 09:26:22;;;;;;;6.95;3.28;;;;;;;;;;4951627;29;20031;-75
2022/02/27 09:28:48;;;;;;;9.32;3.50;;;;;;;;;;4950622;29;20093;-75
2022/02/27 09:31:14;;;;;;;11.25;2.75;;;;;;;;;;4951243;29;20024;-75
2022/02/27 09:33:40;;;;;;;7.72;2.53;;;;;;;;;;4951226;28;20031;-75
2022/02/27 09:36:10;;;;;;;8.27;3.70;;;;;;;;;;4951691;29;20028;-76
2022/02/27 09:38:36;;;;;;;5.85;2.72;;;;;;;;;;4951338;29;20118;-75
2022/02/27 09:41:03;;;;;;;6.55;2.88;;;;;;;;;;4952387;29;20477;-77
2022/02/27 09:43:29;;;;;;;5.82;2.80;;;;;;;;;;4954102;29;20034;-77
2022/02/27 09:45:55;;;;;;;6.97;3.22;;;;;;;;;;4951136;28;20031;-76
2022/02/27 09:48:21;;;;;;;8.88;3.70;;;;;;;;;;4951671;29;20472;-79
2022/02/27 09:50:50;;;;;;;7.28;2.70;;;;;;;;;;4951668;29;20192;-76
2022/02/27 09:53:16;;;;;;;11.32;3.55;;;;;;;;;;4951202;29;20055;-75
2022/02/27 09:55:42;;;;;;;6.50;3.00;;;;;;;;;;4951368;28;20034;-75
2022/02/27 09:58:08;;;;;;;7.78;3.40;;;;;;;;;;4951031;28;20033;-75
2022/02/27 10:00:34;;;;;;;9.82;4.20;;;11.90;89.00;;;;;;4950498;29;20027;-76
2022/02/27 10:03:05;;;;;;;10.00;4.28;;;;;;;;;;4934130;28;20120;-76
2022/02/27 10:05:31;;;;;;;7.93;2.78;;;;;;;;;;4951188;29;20527;-77
2022/02/27 10:07:58;;;;;;;6.90;2.80;;;;;;;;;;4951316;29;20039;-76
2022/02/27 10:10:24;;;;;;;6.80;2.90;;;;;;;;;;4950550;29;20047;-76
2022/02/27 10:12:50;;;;;;;7.00;3.30;;;;;;;;;;4951053;29;20031;-76
2022/02/27 10:15:17;;;;;;;6.90;3.20;;;;;;;;;;4950855;29;20067;-76
2022/02/27 10:17:44;;;;;;;7.63;3.40;;;;;;;;;;4949898;28;20031;-76
2022/02/27 10:20:11;;;;;;;21.70;11.05;;;;;;;;;;4950714;29;20027;-75
2022/02/27 10:22:39;;;;;;;7.78;3.45;;;;;;;;;;4951141;28;20031;-76
2022/02/27 10:25:07;;;;;;;6.32;2.90;;;;;;;;;;4955419;28;20487;-77
2022/02/27 10:27:50;;;;;;;7.28;2.80;;;;;;;;;;4951068;29;20031;-74
2022/02/27 10:30:26;;;;;;;5.72;2.70;;;;;;;;;;4949879;29;20031;-74
2022/02/27 10:32:57;;;;;;;6.13;2.85;;;;;;;;;;4951034;29;20054;-74
2022/02/27 10:35:38;;;;;;;7.72;2.80;;;;;;;;;;4952136;28;20027;-74
2022/02/27 10:38:05;;;;;;;4.32;2.63;;;;;;;;;;4953965;29;20030;-74
2022/02/27 10:40:31;;;;;;;5.63;3.08;;;;;;;;;;4936863;28;20106;-74
2022/02/27 10:42:58;;;;;;;5.57;2.92;;;;;;;;;;4954452;29;20035;-75
2022/02/27 10:45:24;;;;;;;6.82;2.88;;;;;;;;;;4953954;28;20027;-75
2022/02/27 10:48:00;;;;;;;7.65;3.03;;;;;;;;;;4955161;29;20472;-75
2022/02/27 10:50:27;;;;;;;6.55;2.88;;;;;;;;;;4954373;29;20113;-76
2022/02/27 10:52:53;;;;;;;6.57;3.20;;;;;;;;;;4953957;28;20031;-75
2022/02/27 10:55:20;;;;;;;6.95;3.15;;;;;;;;;;4954043;29;20026;-75
2022/02/27 10:57:46;;;;;;;4.85;2.70;;;;;;;;;;4954041;28;20089;-75
2022/02/27 11:00:19;;;;;;;6.50;2.80;;;;;;;;;;4953071;29;20028;-75
2022/02/27 11:02:55;;;;;;;6.38;2.67;;;;;;;;;;4953796;29;20066;-75
2022/02/27 11:05:25;;;;;;;7.40;3.10;;;;;;;;;;4953445;28;20031;-75
2022/02/27 11:07:56;;;;;;;4.88;2.35;;;;;;;;;;4954031;29;20395;-76
2022/02/27 11:10:26;;;;;;;5.20;2.40;;;;;;;;;;4953199;29;20035;-75
2022/02/27 11:12:52;;;;;;;4.25;2.10;;;;;;;;;;4953668;29;20015;-76
2022/02/27 11:15:20;;;;;;;5.63;2.58;;;;;;;;;;4935894;28;20438;-75
2022/02/27 11:17:46;;;;;;;5.65;2.28;;;;;;;;;;4952387;29;20023;-75
2022/02/27 11:20:13;;;;;;;3.63;1.90;;;;;;;;;;4952656;29;20019;-76
2022/02/27 11:22:39;;;;;;;4.50;2.25;;;;;;;;;;4950887;28;20038;-76
2022/02/27 11:25:08;;;;;;;4.50;2.13;;;;;;;;;;4953222;28;20032;-74
2022/02/27 11:27:35;;;;;;;4.90;2.30;;;;;;;;;;4953012;29;20050;-76
2022/02/27 11:30:01;;;;;;;4.20;2.13;;;;;;;;;;4952732;28;20110;-76
2022/02/27 11:32:27;;;;;;;4.63;2.38;;;;;;;;;;4936218;29;20047;-76
2022/02/27 11:34:54;;;;;;;3.70;1.85;;;;;;;;;;4953375;29;20027;-75
2022/02/27 11:37:38;;;;;;;5.72;2.03;;;;;;;;;;4953426;29;20036;-76
2022/02/27 11:40:31;;;;;;;5.05;2.08;;;;;;;;;;4952508;29;20062;-76
2022/02/27 11:43:00;;;;;;;6.27;2.37;;;;;;;;;;4953396;29;20028;-76
2022/02/27 11:45:32;;;;;;;2.85;1.50;;;;;;;;;;4952563;29;20101;-76
2022/02/27 11:47:59;;;;;;;4.53;2.42;;;;;;;;;;4952949;29;20081;-76
2022/02/27 11:50:30;;;;;;;5.28;2.67;;;;;;;;;;4949597;28;20504;-76
2022/02/27 11:52:56;;;;;;;6.13;3.38;;;;;;;;;;4948386;29;20043;-76
2022/02/27 11:55:41;;;;;;;3.88;1.55;;;;;;;;;;4952540;29;20433;-75
2022/02/27 11:58:08;;;;;;;5.30;1.77;;;;;;;;;;4951244;29;20015;-76
2022/02/27 12:00:38;;;;;;;6.55;2.00;;;;;;;;;;4951819;29;20050;-76
2022/02/27 12:03:24;;;;;;;3.28;2.15;;;;;;;;;;4948259;29;20531;-76
2022/02/27 12:05:51;;;;;;;4.18;2.15;;;;;;;;;;4951104;29;20522;-76
2022/02/27 12:08:18;;;;;;;2.78;1.80;;;;;;;;;;4952395;29;20465;-75
2022/02/27 12:10:45;;;;;;;3.90;1.73;;;;;;;;;;4952247;29;20024;-76
2022/02/27 12:13:25;;;;;;;4.03;1.85;;;;;;;;;;4952778;28;20028;-76
2022/02/27 12:16:08;;;;;;;5.93;1.90;;;;;;;;;;4950147;29;20388;-76
2022/02/27 12:18:46;;;;;;;2.70;1.60;;;;;;;;;;4932095;28;20090;-76
2022/02/27 12:21:13;;;;;;;3.35;1.52;;;;;;;;;;4949032;28;20027;-76
2022/02/27 12:23:43;;;;;;;5.05;2.30;;;;;;;;;;4950659;29;20055;-76
2022/02/27 12:26:10;;;;;;;4.38;1.73;;;;;;;;;;4943404;28;20031;-75
2022/02/27 12:28:48;;;;;;;4.60;1.70;;;;;;;;;;4933643;28;20043;-76
2022/02/27 12:31:18;;;;;;;3.55;1.65;;;;;;;;;;4947086;29;20024;-76
2022/02/27 12:33:44;;;;;;;4.05;2.05;;;;;;;;;;4952433;28;20031;-75
2022/02/27 12:36:10;;;;;;;4.28;2.42;;;;;;;;;;4952546;28;20085;-76
2022/02/27 12:38:36;;;;;;;5.00;2.45;;;;;;;;;;4949338;28;20561;-76
2022/02/27 12:41:03;;;;;;;2.85;1.77;;;;;;;;;;4952633;29;20063;-76
2022/02/27 12:43:29;;;;;;;4.78;1.98;;;;;;;;;;4950562;29;20102;-75
2022/02/27 12:45:55;;;;;;;3.75;1.60;;;;;;;;;;4953423;29;20060;-75
2022/02/27 12:48:22;;;;;;;4.05;1.88;;;;;;;;;;4952196;28;20039;-76
2022/02/27 12:50:49;;;;;;;3.58;2.00;;;;;;;;;;4946508;28;20068;-75
2022/02/27 12:53:17;;;;;;;3.60;1.92;;;;;;;;;;4949503;29;20023;-76
2022/02/27 12:55:43;;;;;;;4.82;1.60;;;;;;;;;;4952910;29;20036;-76
2022/02/27 12:58:10;;;;;;;3.70;1.50;;;;;;;;;;4951764;28;20039;-76
2022/02/27 13:00:37;;;;;;;4.03;1.90;;;;;;;;;;4948730;29;20023;-76
2022/02/27 13:03:10;;;;;;;4.43;1.90;;;;;;;;;;4948116;29;20038;-76
2022/02/27 13:05:36;;;;;;;5.22;2.13;;;;;;;;;;4953532;29;20075;-77
2022/02/27 13:08:04;;;;;;;7.10;3.92;;;;;;;;;;4955105;28;20032;-76
2022/02/27 13:10:30;;;;;;;3.33;2.05;;;;;;;;;;4948404;28;20078;-76